Historique des stations

Station météo de Bellegarde

Altitude de la station : 121 m







Données météorologiques pour le 02/12/2021
Date
Heure
Températures Humidité Point de rosée Vitesse
du vent
Direction Rafales Windchill Pression Pluviométrie
Cumul
Date
Heure
Températures Humidité Point de rosée Vitesse
du vent
Direction Rafales Windchill Pression Pluviométrie
Cumul
02/12/2021 16:315.1 °C77 %1.4 °C10 km/hNNO19 km/h2.81011 hPa1.6 mm
02/12/2021 16:265.2 °C76 %1.3 °C5 km/hNNO19 km/h2.71011 hPa1.6 mm
02/12/2021 16:165.4 °C75 %1.4 °C11 km/hNO19 km/h2.91011 hPa1.6 mm
02/12/2021 16:115.6 °C75 %1.5 °C8 km/hNW21 km/h3.11011 hPa1.6 mm
02/12/2021 16:015.9 °C76 %2.0 °C11 km/hONO23 km/h3.51011 hPa1.6 mm
02/12/2021 15:515.9 °C77 %2.2 °C10 km/hNNO18 km/h3.61010 hPa1.6 mm
02/12/2021 15:465.8 °C77 %2.1 °C11 km/hNNO21 km/h3.41010 hPa1.6 mm
02/12/2021 15:415.7 °C77 %2.0 °C10 km/hNNO23 km/h3.01010 hPa1.6 mm
02/12/2021 15:315.7 °C77 %2.0 °C15 km/hNNO27 km/h2.71010 hPa1.6 mm
02/12/2021 15:265.7 °C77 %1.9 °C16 km/hNW27 km/h2.61010 hPa1.6 mm
02/12/2021 15:165.8 °C78 %2.2 °C13 km/hNO24 km/h3.11010 hPa1.6 mm
02/12/2021 15:115.8 °C77 %2.1 °C8 km/hN24 km/h3.11010 hPa1.6 mm
02/12/2021 15:015.7 °C79 %2.4 °C13 km/hNO27 km/h3.01010 hPa1.6 mm
02/12/2021 14:565.7 °C80 %2.5 °C23 km/hNW24 km/h2.91010 hPa1.6 mm
02/12/2021 14:465.4 °C83 %2.8 °C10 km/hN18 km/h3.31010 hPa1.6 mm
02/12/2021 14:415.3 °C82 %2.5 °C5 km/hNNO21 km/h2.71010 hPa1.6 mm
02/12/2021 14:314.9 °C86 %2.8 °C13 km/hNNO23 km/h2.11010 hPa1.6 mm
02/12/2021 14:264.6 °C87 %2.6 °C13 km/hN23 km/h1.81010 hPa1.6 mm
02/12/2021 14:163.6 °C89 %2.0 °C6 km/hNO15 km/h2.01010 hPa1.6 mm
02/12/2021 14:113.4 °C87 %1.5 °C5 km/hNNO16 km/h1.31010 hPa1.6 mm
02/12/2021 14:014.1 °C83 %1.4 °C18 km/hNNO34 km/h0.21010 hPa1.6 mm
02/12/2021 13:564.9 °C79 %1.6 °C16 km/hNNO34 km/h1.31010 hPa1.2 mm
02/12/2021 13:465.9 °C80 %2.8 °C13 km/hONO26 km/h3.21010 hPa1.2 mm
02/12/2021 13:416.1 °C80 %2.9 °C15 km/hN23 km/h3.81010 hPa1.2 mm
02/12/2021 13:316.1 °C83 %3.4 °C10 km/hNNO24 km/h4.11010 hPa1.2 mm
02/12/2021 13:265.6 °C84 %3.1 °C6 km/hNW19 km/h3.41010 hPa1.2 mm
02/12/2021 13:165.5 °C81 %2.5 °C13 km/hNNO26 km/h2.71010 hPa1.2 mm
02/12/2021 13:115.6 °C82 %2.7 °C6 km/hNW23 km/h3.11010 hPa1.2 mm
02/12/2021 13:015.4 °C85 %3.1 °C8 km/hN19 km/h3.71010 hPa1.2 mm
02/12/2021 12:565.3 °C86 %3.1 °C5 km/hONO18 km/h3.41010 hPa1.2 mm
02/12/2021 12:465.1 °C86 %3.0 °C8 km/hNO19 km/h3.21010 hPa1.2 mm
02/12/2021 12:415.1 °C86 %3.0 °C8 km/hN19 km/h2.81010 hPa1.2 mm
02/12/2021 12:315.1 °C86 %2.9 °C10 km/hNNO23 km/h2.81010 hPa1.2 mm
02/12/2021 12:265.1 °C86 %2.9 °C15 km/hN23 km/h3.21010 hPa1.2 mm
02/12/2021 12:165.0 °C86 %2.9 °C10 km/hONO19 km/h2.71010 hPa1.2 mm
02/12/2021 12:114.9 °C86 %2.8 °C10 km/hNNO19 km/h2.71010 hPa1.2 mm
02/12/2021 12:014.8 °C87 %2.9 °C11 km/hN19 km/h2.21010 hPa1.2 mm
02/12/2021 11:564.8 °C86 %2.6 °C15 km/hNNO19 km/h2.51010 hPa1.2 mm
02/12/2021 11:464.7 °C86 %2.5 °C10 km/h19 km/h2.31010 hPa1.2 mm
02/12/2021 11:414.7 °C86 %2.5 °C6 km/hN19 km/h2.31010 hPa1.2 mm
02/12/2021 11:314.6 °C87 %2.6 °C8 km/hNO15 km/h2.71010 hPa1.2 mm
02/12/2021 11:264.5 °C87 %2.5 °C8 km/hONO15 km/h2.61010 hPa1.2 mm
02/12/2021 11:164.4 °C86 %2.3 °C8 km/hONO19 km/h2.41010 hPa1.2 mm
02/12/2021 11:114.4 °C86 %2.3 °C13 km/hNNO18 km/h2.01010 hPa1.2 mm
02/12/2021 11:014.5 °C87 %2.5 °C10 km/hN19 km/h2.21010 hPa1.2 mm
02/12/2021 10:564.5 °C86 %2.4 °C6 km/hN19 km/h2.21010 hPa1.2 mm
02/12/2021 10:464.6 °C86 %2.4 °C11 km/hNNO24 km/h1.81010 hPa1.2 mm
02/12/2021 10:414.7 °C86 %2.5 °C10 km/hNNO24 km/h2.31010 hPa1.2 mm
02/12/2021 10:314.8 °C86 %2.6 °C10 km/h23 km/h2.51010 hPa1.2 mm
02/12/2021 10:264.7 °C89 %3.1 °C3 km/hN23 km/h2.41010 hPa1.2 mm
02/12/2021 10:164.3 °C89 %2.6 °C10 km/hNNO23 km/h1.91009 hPa1.2 mm
02/12/2021 10:113.9 °C89 %2.3 °C5 km/hNNO19 km/h1.51009 hPa1.2 mm
02/12/2021 10:013.4 °C90 %2.0 °C10 km/hNNO18 km/h0.91009 hPa1.2 mm
02/12/2021 09:563.5 °C89 %1.9 °C6 km/hN16 km/h0.91009 hPa1.2 mm
02/12/2021 09:463.6 °C89 %2.0 °C8 km/hN23 km/h1.51009 hPa1.2 mm
02/12/2021 09:413.7 °C90 %2.2 °C5 km/hNNO23 km/h1.21009 hPa1.2 mm
02/12/2021 09:313.5 °C90 %2.0 °C10 km/h23 km/h0.91009 hPa1.2 mm
02/12/2021 09:263.4 °C90 %1.9 °C13 km/hNW19 km/h0.81009 hPa1.2 mm
02/12/2021 09:163.2 °C90 %1.7 °C8 km/hNO15 km/h1.01009 hPa1.2 mm
02/12/2021 09:113.1 °C90 %1.6 °C10 km/hNW16 km/h0.91009 hPa1.2 mm
02/12/2021 09:012.9 °C90 %1.5 °C8 km/hNNO18 km/h0.71009 hPa1.2 mm
02/12/2021 08:562.8 °C90 %1.3 °C6 km/hNNO18 km/h0.51008 hPa1.2 mm
02/12/2021 08:462.6 °C90 %1.1 °C11 km/h21 km/h-0.41008 hPa1.2 mm
02/12/2021 08:412.6 °C90 %1.1 °C6 km/hNNE19 km/h-0.41008 hPa1.2 mm
02/12/2021 08:312.7 °C91 %1.4 °C8 km/hNNO15 km/h0.41008 hPa1.2 mm
02/12/2021 08:262.7 °C90 %1.2 °C6 km/hN15 km/h0.91008 hPa1.2 mm
02/12/2021 08:163.0 °C90 %1.5 °C8 km/hN16 km/h0.81008 hPa1.2 mm
02/12/2021 08:113.1 °C90 %1.6 °C16 km/hNW19 km/h0.41008 hPa1.2 mm
02/12/2021 08:013.3 °C90 %1.8 °C11 km/hNNO23 km/h0.31007 hPa1.2 mm
02/12/2021 07:563.4 °C89 %1.7 °C6 km/hNNO16 km/h1.21007 hPa1.2 mm
02/12/2021 07:463.8 °C89 %2.1 °C11 km/h24 km/h0.91007 hPa1.2 mm
02/12/2021 07:413.9 °C89 %2.2 °C11 km/hNNE24 km/h0.51007 hPa1.2 mm
02/12/2021 07:314.2 °C89 %2.6 °C15 km/hNO23 km/h0.91007 hPa1.2 mm
02/12/2021 07:264.3 °C90 %2.8 °C13 km/hNNO26 km/h1.01007 hPa1.2 mm
02/12/2021 07:164.6 °C91 %3.2 °C15 km/hNNE29 km/h1.31007 hPa1.2 mm
02/12/2021 07:114.6 °C91 %3.2 °C6 km/hNNO34 km/h1.01007 hPa1.2 mm
02/12/2021 07:014.7 °C92 %3.5 °C15 km/h31 km/h1.51007 hPa1.2 mm
02/12/2021 06:564.7 °C93 %3.7 °C23 km/hNNE23 km/h1.81007 hPa1.2 mm
02/12/2021 06:464.7 °C94 %3.8 °C13 km/hNO21 km/h1.71006 hPa1.2 mm
02/12/2021 06:414.8 °C94 %3.9 °C10 km/hNNO23 km/h1.81006 hPa1.2 mm
02/12/2021 06:314.8 °C94 %3.9 °C10 km/h18 km/h2.51006 hPa1.2 mm
02/12/2021 06:264.8 °C94 %3.9 °C10 km/hN18 km/h2.51006 hPa1.2 mm
02/12/2021 06:164.7 °C94 %3.8 °C11 km/hN23 km/h2.01006 hPa1.2 mm
02/12/2021 06:114.7 °C94 %3.8 °C19 km/hNNO19 km/h2.31006 hPa1.2 mm
02/12/2021 06:014.7 °C94 %3.8 °C10 km/hNNO16 km/h2.31006 hPa1.2 mm
02/12/2021 05:564.6 °C95 %3.9 °C10 km/hN16 km/h2.31006 hPa1.0 mm
02/12/2021 05:464.6 °C95 %3.9 °C6 km/h15 km/h3.21006 hPa1.0 mm
02/12/2021 05:414.6 °C95 %3.8 °C8 km/hN15 km/h2.61005 hPa1.0 mm
02/12/2021 05:314.6 °C95 %3.8 °C10 km/hNNE19 km/h2.21006 hPa0.6 mm
02/12/2021 05:264.6 °C95 %3.8 °C13 km/hNNO16 km/h2.61005 hPa0.6 mm
02/12/2021 05:164.5 °C94 %3.6 °C10 km/hNO18 km/h2.21005 hPa0.6 mm
02/12/2021 05:114.5 °C94 %3.6 °C5 km/hNNO21 km/h2.61005 hPa0.6 mm
02/12/2021 05:014.4 °C95 %3.7 °C8 km/hNO18 km/h2.51005 hPa0.6 mm
02/12/2021 04:564.4 °C95 %3.7 °C6 km/hONO23 km/h2.51005 hPa0.4 mm
02/12/2021 04:464.3 °C95 %3.6 °C6 km/hNO16 km/h2.81005 hPa0.4 mm
02/12/2021 04:414.3 °C95 %3.5 °C11 km/hNW16 km/h2.81005 hPa0.4 mm
02/12/2021 04:314.1 °C95 %3.4 °C5 km/hNNO11 km/h3.21005 hPa0.4 mm
02/12/2021 04:264.1 °C94 %3.2 °C5 km/hONO10 km/h3.21005 hPa0.4 mm
02/12/2021 04:164.1 °C94 %3.2 °C6 km/hONO11 km/h2.61005 hPa0.4 mm
02/12/2021 04:114.1 °C94 %3.2 °C6 km/hONO13 km/h2.51005 hPa0.4 mm
02/12/2021 04:014.0 °C94 %3.1 °C8 km/hONO15 km/h1.91005 hPa0.0 mm
02/12/2021 03:564.0 °C95 %3.3 °C6 km/hNW16 km/h1.91005 hPa0.0 mm
02/12/2021 03:463.9 °C95 %3.2 °C6 km/hONO13 km/h2.41005 hPa0.0 mm
02/12/2021 03:413.9 °C94 %3.1 °C5 km/hO16 km/h2.41005 hPa0.0 mm
02/12/2021 03:313.9 °C94 %3.1 °C8 km/hO18 km/h1.91005 hPa0.0 mm
02/12/2021 03:263.9 °C95 %3.2 °C5 km/hNW16 km/h1.91005 hPa0.0 mm
02/12/2021 03:163.9 °C95 %3.2 °C8 km/hNO16 km/h1.91005 hPa0.0 mm
02/12/2021 03:113.9 °C94 %3.0 °C6 km/hO16 km/h1.81005 hPa0.0 mm
02/12/2021 03:013.8 °C95 %3.1 °C8 km/hONO16 km/h1.71005 hPa0.0 mm
02/12/2021 02:563.8 °C95 %3.1 °C5 km/hO13 km/h1.71005 hPa0.0 mm
02/12/2021 02:463.7 °C95 %2.9 °C8 km/hONO13 km/h1.61005 hPa0.0 mm
02/12/2021 02:413.7 °C95 %2.9 °C5 km/hO13 km/h2.11005 hPa0.0 mm
02/12/2021 02:313.6 °C95 %2.8 °C6 km/hO13 km/h1.91004 hPa0.0 mm
02/12/2021 02:263.5 °C94 %2.6 °C6 km/hO13 km/h1.91004 hPa0.0 mm
02/12/2021 02:163.3 °C94 %2.5 °C8 km/hO13 km/h1.21004 hPa0.0 mm
02/12/2021 02:113.3 °C94 %2.5 °C6 km/hNW13 km/h1.71004 hPa0.0 mm
02/12/2021 02:013.2 °C94 %2.3 °C6 km/hONO11 km/h1.61004 hPa0.0 mm
02/12/2021 01:563.2 °C94 %2.3 °C10 km/hO11 km/h2.21004 hPa0.0 mm
02/12/2021 01:463.4 °C94 %2.5 °C3 km/hO10 km/h3.21004 hPa0.0 mm
02/12/2021 01:413.4 °C94 %2.6 °C2 km/hOSO10 km/h2.41004 hPa0.0 mm
02/12/2021 01:363.4 °C94 %2.6 °C3 km/hO10 km/h3.21004 hPa0.0 mm
02/12/2021 01:263.3 °C94 %2.5 °C2 km/hOSO11 km/h2.31004 hPa0.0 mm
02/12/2021 01:213.3 °C94 %2.4 °C5 km/hOSO11 km/h2.21004 hPa0.0 mm
02/12/2021 01:113.4 °C94 %2.5 °C10 km/hO10 km/h2.31004 hPa0.0 mm
02/12/2021 01:063.4 °C94 %2.5 °C5 km/h--2.31004 hPa0.0 mm
02/12/2021 01:013.4 °C93 %2.4 °C3 km/h--3.21004 hPa0.0 mm
02/12/2021 00:463.6 °C93 %2.5 °C3 km/hO6 km/h3.31004 hPa3.6 mm
02/12/2021 00:413.6 °C93 %2.5 °C5 km/hSO5 km/h3.31004 hPa3.6 mm
02/12/2021 00:313.7 °C93 %2.7 °C5 km/hO13 km/h2.71004 hPa3.6 mm
02/12/2021 00:263.8 °C93 %2.8 °C10 km/hO13 km/h2.81004 hPa3.6 mm
02/12/2021 00:163.9 °C93 %2.9 °C6 km/hO13 km/h2.41004 hPa3.6 mm
02/12/2021 00:113.9 °C93 %2.9 °C13 km/hO13 km/h2.41004 hPa3.6 mm
02/12/2021 00:014.1 °C93 %3.1 °C6 km/hONO11 km/h2.61004 hPa3.6 mm


Minima :

Température : 2.6 °C
Humidité : 75 %
Point de rosée : 1.1 °C
Vent moyen : 2 km/h
Windchill : -0.4
Pression atm. : 1004 hPa
Maxima :

Température : 6.1 °C
Humidité : 95 %
Point de rosée : 3.9 °C
Vent moyen : 23 km/h
Windchill : 4.1
Pression atm. : 1011 hPa
Rafales max : 34 km/h
Cumul de pluie sur 24H : 3.6 mm

Bellegarde est une commune du département Loiret (45).
La station météorologique du réseau de l'association la plus proche de Bellegarde est celle de Saint-Firmin-des-Bois
Site du propriétaire de la station : meteo-grognon.com



Icône Facebook Association Météo Centre Icône Twitter Association Météo Centre Icône Chaîne Youtube Association Météo Centre Icône contact Association Météo Centre Icône Insta Association Météo Centre